Terminal Aerodrome Forecast
Issued by NWS

Home | Current Version | Previous Version | Text Only | Print | Product List | Glossary On
Versions: 1 2 3 4 5 6 7 8 9 10 11 12 13
867
FTUS42 KTBW 220533
TAFLAL
TAF
KLAL 220533Z 2206/2306 10006KT P6SM FEW025 SCT250
     FM222000 04007KT P6SM VCTS SCT040CB SCT250
     FM230200 08003KT P6SM BKN250
      AMD NOT SKED TIL 221100=

USA.gov is the U.S. government's official web portal to all federal, state and local government web resources and services.